createdAt,value
2018-07-15T00:04:19.541Z,24.16
2018-07-15T00:09:23.183Z,24.14
2018-07-15T00:14:26.913Z,24.05
2018-07-15T00:19:30.692Z,24.04
2018-07-15T00:24:34.387Z,24.07
2018-07-15T00:29:38.098Z,24.11
2018-07-15T00:34:41.835Z,24.10
2018-07-15T00:39:45.504Z,24.05
2018-07-15T00:44:49.227Z,24.05
2018-07-15T00:49:52.981Z,23.98
2018-07-15T00:54:56.643Z,23.95
2018-07-15T01:00:00.574Z,23.98
2018-07-15T01:05:06.042Z,23.99
2018-07-15T01:10:09.693Z,23.91
2018-07-15T01:15:13.426Z,23.83
2018-07-15T01:20:17.106Z,23.86
2018-07-15T01:25:20.733Z,23.93
2018-07-15T01:30:24.397Z,23.90
2018-07-15T01:35:28.050Z,23.85
2018-07-15T01:40:31.775Z,23.82
2018-07-15T01:45:35.539Z,23.86
2018-07-15T01:50:39.179Z,23.83
2018-07-15T01:55:42.918Z,23.75
2018-07-15T02:00:46.610Z,23.75
2018-07-15T02:05:50.269Z,23.75
2018-07-15T02:10:53.941Z,23.72
2018-07-15T02:15:57.761Z,23.65
2018-07-15T02:21:01.419Z,23.64
2018-07-15T02:26:05.174Z,23.61
2018-07-15T02:31:08.845Z,23.57
2018-07-15T02:36:12.518Z,23.57
2018-07-15T02:41:16.321Z,23.48
2018-07-15T02:46:20.090Z,23.41
2018-07-15T02:51:23.738Z,23.43
2018-07-15T02:56:27.404Z,23.34
2018-07-15T03:01:31.049Z,23.28
2018-07-15T03:06:34.691Z,23.25
2018-07-15T03:11:38.410Z,22.94
2018-07-15T03:16:42.142Z,22.93
2018-07-15T03:21:45.868Z,22.98
2018-07-15T03:26:49.790Z,22.99
2018-07-15T03:31:53.477Z,23.05
2018-07-15T03:36:57.210Z,22.94
2018-07-15T03:42:01.066Z,22.69
2018-07-15T03:47:04.748Z,22.87
2018-07-15T03:52:08.472Z,22.91
2018-07-15T03:57:12.190Z,22.88
2018-07-15T04:02:15.848Z,22.73
2018-07-15T04:07:19.619Z,22.82
2018-07-15T04:12:23.346Z,22.83
2018-07-15T04:17:27.102Z,22.60
2018-07-15T04:22:30.791Z,22.60
2018-07-15T04:27:34.480Z,22.53
2018-07-15T04:32:38.211Z,22.74
2018-07-15T04:37:42.011Z,22.89
2018-07-15T04:42:45.682Z,22.89
2018-07-15T04:47:49.923Z,22.86
2018-07-15T04:52:53.784Z,22.94
2018-07-15T04:57:57.447Z,22.93
2018-07-15T05:03:01.150Z,22.92
2018-07-15T05:08:04.891Z,22.87
2018-07-15T05:13:08.534Z,22.77
2018-07-15T05:18:12.169Z,22.93
2018-07-15T05:23:15.847Z,22.84
2018-07-15T05:28:19.471Z,22.85
2018-07-15T05:33:23.231Z,22.73
2018-07-15T05:38:26.887Z,22.77
2018-07-15T05:43:30.582Z,22.80
2018-07-15T05:48:34.289Z,22.73
2018-07-15T05:53:38.003Z,22.76
2018-07-15T05:58:41.717Z,22.80
2018-07-15T06:03:45.458Z,22.88
2018-07-15T06:08:49.095Z,22.90
2018-07-15T06:13:52.795Z,22.89
2018-07-15T06:18:56.452Z,22.88
2018-07-15T06:24:00.143Z,22.93
2018-07-15T06:29:03.875Z,22.99
2018-07-15T06:34:07.585Z,22.96
2018-07-15T06:39:11.300Z,23.01
2018-07-15T06:44:15.014Z,23.09
2018-07-15T06:49:18.778Z,23.08
2018-07-15T06:54:22.470Z,23.07
2018-07-15T06:59:26.290Z,23.02
2018-07-15T07:04:29.918Z,22.89
2018-07-15T07:09:33.606Z,22.98
2018-07-15T07:14:37.342Z,22.99
2018-07-15T07:19:41.153Z,23.09
2018-07-15T07:24:44.820Z,23.09
2018-07-15T07:29:48.462Z,23.20
2018-07-15T07:34:52.147Z,23.20
2018-07-15T07:39:55.751Z,23.16
2018-07-15T07:44:59.529Z,23.24
2018-07-15T07:50:05.718Z,23.22
2018-07-15T07:55:09.408Z,23.17
2018-07-15T08:00:13.081Z,23.19
2018-07-15T08:05:16.834Z,23.29
2018-07-15T08:10:20.508Z,23.27
2018-07-15T08:15:24.247Z,23.42
2018-07-15T08:20:27.843Z,23.35
2018-07-15T08:25:31.636Z,23.41
2018-07-15T08:30:46.505Z,23.38
2018-07-15T08:35:50.170Z,23.40
2018-07-15T08:40:53.876Z,23.46
2018-07-15T08:45:57.598Z,23.39
2018-07-15T08:51:01.530Z,23.45
2018-07-15T08:56:05.216Z,23.52
2018-07-15T09:01:08.970Z,23.47
2018-07-15T09:06:12.710Z,23.54
2018-07-15T09:11:16.493Z,23.53
2018-07-15T09:16:20.655Z,23.47
2018-07-15T09:21:25.081Z,23.58
2018-07-15T09:26:28.740Z,23.59
2018-07-15T09:31:32.418Z,23.60
2018-07-15T09:36:36.146Z,23.68
2018-07-15T09:41:39.863Z,23.67
2018-07-15T09:46:43.619Z,23.65
2018-07-15T09:51:47.301Z,23.66
2018-07-15T09:56:50.972Z,23.63
2018-07-15T10:01:54.688Z,23.72
2018-07-15T10:06:58.378Z,23.78
2018-07-15T10:12:02.770Z,23.72
2018-07-15T10:17:06.527Z,23.74
2018-07-15T10:22:10.514Z,23.82
2018-07-15T10:27:14.291Z,23.92
2018-07-15T10:32:17.956Z,23.89
2018-07-15T10:37:21.990Z,23.94
2018-07-15T10:42:25.674Z,23.89
2018-07-15T10:47:29.395Z,24.01
2018-07-15T10:52:33.125Z,24.08
2018-07-15T10:57:36.915Z,24.10
2018-07-15T11:02:40.635Z,24.06
2018-07-15T11:07:45.021Z,24.06
2018-07-15T11:12:48.702Z,24.12
2018-07-15T11:17:52.403Z,24.10
2018-07-15T11:22:56.049Z,24.14
2018-07-15T11:28:00.715Z,24.06
2018-07-15T11:33:04.594Z,24.07
2018-07-15T11:38:08.323Z,24.10
2018-07-15T11:43:11.996Z,24.10
2018-07-15T11:48:15.880Z,24.11
2018-07-15T11:53:19.539Z,24.19
2018-07-15T11:58:23.350Z,24.23
2018-07-15T12:03:27.033Z,24.26
2018-07-15T12:08:30.707Z,24.26
2018-07-15T12:13:34.423Z,24.25
2018-07-15T12:18:38.227Z,24.26
2018-07-15T12:23:42.236Z,24.24
2018-07-15T12:28:47.243Z,24.26
2018-07-15T12:33:50.993Z,24.31
2018-07-15T12:38:55.502Z,24.34
2018-07-15T12:43:59.208Z,24.34
2018-07-15T12:49:02.872Z,24.37
2018-07-15T12:54:06.778Z,24.45
2018-07-15T12:59:11.463Z,24.35
2018-07-15T13:04:15.148Z,24.28
2018-07-15T13:09:18.880Z,24.36
2018-07-15T13:14:22.542Z,24.39
2018-07-15T13:19:26.254Z,24.44
2018-07-15T13:24:29.980Z,24.49
2018-07-15T13:29:33.859Z,24.47
2018-07-15T13:34:37.582Z,24.47
2018-07-15T13:39:41.287Z,24.46
2018-07-15T13:44:44.924Z,24.46
2018-07-15T13:49:48.623Z,24.47
2018-07-15T13:54:52.322Z,24.38
2018-07-15T13:59:56.074Z,24.51
2018-07-15T14:04:59.792Z,24.52
2018-07-15T14:10:04.885Z,24.53
2018-07-15T14:15:08.651Z,24.49
2018-07-15T14:20:12.254Z,24.58
2018-07-15T14:25:15.983Z,24.59
2018-07-15T14:30:19.646Z,24.63
2018-07-15T14:35:23.288Z,24.74
2018-07-15T14:40:27.148Z,24.77
2018-07-15T14:45:30.894Z,24.69
2018-07-15T14:50:34.498Z,24.71
2018-07-15T14:55:38.820Z,24.68
2018-07-15T15:00:42.516Z,24.72
2018-07-15T15:05:46.351Z,24.75
2018-07-15T15:10:50.010Z,24.77
2018-07-15T15:15:53.702Z,24.77
2018-07-15T15:20:57.371Z,24.77
2018-07-15T15:26:00.990Z,24.82
2018-07-15T15:31:04.625Z,24.81
2018-07-15T15:36:08.326Z,24.83
2018-07-15T15:41:12.111Z,24.83
2018-07-15T15:46:15.934Z,24.83
2018-07-15T15:51:19.613Z,24.84
2018-07-15T15:56:23.291Z,24.86
2018-07-15T16:01:27.092Z,24.89
2018-07-15T16:06:30.845Z,24.89
2018-07-15T16:11:34.529Z,24.90
2018-07-15T16:16:38.242Z,24.91
2018-07-15T16:21:41.934Z,24.91
2018-07-15T16:26:45.615Z,24.92
2018-07-15T16:31:49.311Z,24.93
2018-07-15T16:36:52.994Z,24.94
2018-07-15T16:41:56.716Z,24.95
2018-07-15T16:47:00.424Z,24.95
2018-07-15T16:52:04.139Z,24.96
2018-07-15T16:57:07.871Z,25.07
2018-07-15T17:02:11.520Z,25.21
2018-07-15T17:07:15.166Z,25.30
2018-07-15T17:12:18.861Z,25.34
2018-07-15T17:17:23.664Z,25.36
2018-07-15T17:22:27.392Z,25.40
2018-07-15T17:27:31.196Z,25.42
2018-07-15T17:32:35.002Z,25.51
2018-07-15T17:40:31.780Z,25.59
2018-07-15T17:45:35.689Z,25.68
2018-07-15T17:50:39.601Z,25.93
2018-07-15T17:55:43.424Z,25.99
2018-07-15T18:00:47.863Z,25.91
2018-07-15T18:05:51.690Z,26.04
2018-07-15T18:10:55.627Z,26.01
2018-07-15T18:15:59.424Z,26.02
2018-07-15T18:21:03.334Z,26.08
2018-07-15T18:26:07.214Z,26.12
2018-07-15T18:31:11.079Z,25.98
2018-07-15T18:36:14.952Z,25.93
2018-07-15T18:41:18.854Z,25.86
2018-07-15T18:46:22.738Z,25.89
2018-07-15T18:51:26.581Z,25.80
2018-07-15T18:56:30.407Z,25.73
2018-07-15T19:01:34.512Z,25.71
2018-07-15T19:06:38.373Z,25.69
2018-07-15T19:11:42.318Z,25.66
2018-07-15T19:16:46.124Z,25.70
2018-07-15T19:21:49.984Z,25.57
2018-07-15T19:26:53.840Z,25.60
2018-07-15T19:31:58.474Z,25.57
2018-07-15T19:37:02.884Z,25.49
2018-07-15T19:42:07.142Z,25.55
2018-07-15T19:47:10.937Z,25.44
2018-07-15T19:52:14.751Z,25.52
2018-07-15T19:57:19.257Z,25.39
2018-07-15T20:02:23.057Z,25.46
2018-07-15T20:07:27.358Z,25.44
2018-07-15T20:12:31.232Z,25.42
2018-07-15T20:17:35.346Z,25.35
2018-07-15T20:22:39.151Z,25.45
2018-07-15T20:27:43.144Z,25.30
2018-07-15T20:32:47.039Z,25.37
2018-07-15T20:37:50.831Z,25.40
2018-07-15T20:42:54.965Z,25.31
2018-07-15T20:47:59.026Z,25.29
2018-07-15T20:53:02.947Z,25.28
2018-07-15T20:58:06.842Z,25.17
2018-07-15T21:03:10.680Z,25.14
2018-07-15T21:08:14.539Z,25.22
2018-07-15T21:13:18.403Z,25.17
2018-07-15T21:18:22.156Z,25.39
2018-07-15T21:23:26.099Z,25.48
2018-07-15T21:28:29.923Z,25.53
2018-07-15T21:33:33.766Z,25.59
2018-07-15T21:38:37.607Z,25.62
2018-07-15T21:43:41.385Z,25.65
2018-07-15T21:48:45.224Z,25.61
2018-07-15T21:53:49.086Z,25.62
2018-07-15T21:58:52.953Z,25.58
2018-07-15T22:03:56.773Z,25.62
2018-07-15T22:11:13.749Z,25.66
2018-07-15T22:16:17.595Z,25.64
2018-07-15T22:21:21.468Z,25.65
2018-07-15T22:26:25.280Z,25.65
2018-07-15T22:31:29.213Z,25.61
2018-07-15T22:36:33.010Z,25.62
2018-07-15T22:41:37.213Z,25.65
2018-07-15T22:46:41.078Z,25.71
2018-07-15T22:51:44.987Z,25.66
2018-07-15T22:56:48.719Z,25.64
2018-07-15T23:01:52.509Z,25.65
2018-07-15T23:06:56.367Z,25.59
2018-07-15T23:12:00.581Z,25.64
2018-07-15T23:17:05.021Z,25.59
2018-07-15T23:22:09.255Z,25.58
2018-07-15T23:27:14.190Z,25.53
2018-07-15T23:32:18.111Z,25.54
2018-07-15T23:37:22.065Z,25.58
2018-07-15T23:42:25.908Z,25.53
2018-07-15T23:47:29.872Z,25.53
2018-07-15T23:52:33.695Z,25.55
2018-07-15T23:57:37.551Z,25.52
